Terminal Aerodrome Forecast
Issued by NWS

Home | Current Version | Previous Version | Text Only | Print | Product List | Glossary On
Versions: 1 2 3 4 5 6 7 8 9 10 11 12 13 14
573
FTUS42 KGSP 211125
TAFAND
TAF
KAND 211125Z 2112/2212 08005KT P6SM SKC
     FM211700 10008KT P6SM SKC
     FM220800 08004KT P6SM SCT070 BKN100=

USA.gov is the U.S. government's official web portal to all federal, state and local government web resources and services.